Main page
METAR-TAF:

METAR-TAF

Airports :

Saginaw County H.W. Browne Airport

Saginaw, Michigan, United States

latitude: 43-26-00N, longitude: 083-51-45W, elevation: 600 ft

Current weather observation

The report was made 11 minutes ago, at 18:15 UTC
Wind 12 mph from the North/Northeast with gusts up to 18 mph
Temperature 39°F
Humidity 70%
Pressure 30.26 in. Hg
Visibility: 10 miles
Overcast at a height of 2600 ft

METAR: KHYX 241815Z AUTO 03010G16KT 10SM OVC026 04/M01 A3026 RMK AO2

Time: 14:26 (18:26 UTC)


TAF: missing

Weather observations and forecasts of more than 4000 airports (METAR and TAF reports).

The available stations are represented by yellow and red dots on the map.

Hover mouse over dot to see the name of the station.

Then click to see weather observations and forecasts.

To change the map : click on the green buttons with a black cross to zoom in, on the green button with a dash to zoom out, or on the green arrows for adjacent maps.


METAR-TAF: